createdAt,value
2022-11-27T00:03:14.416Z,74.03
2022-11-27T00:08:07.154Z,53.90
2022-11-27T00:13:01.079Z,59.27
2022-11-27T00:17:53.656Z,66.07
2022-11-27T00:22:46.246Z,75.40
2022-11-27T00:27:38.778Z,67.60
2022-11-27T00:32:32.690Z,74.20
2022-11-27T00:37:25.257Z,53.77
2022-11-27T00:42:17.821Z,55.37
2022-11-27T00:47:10.445Z,58.63
2022-11-27T00:52:04.455Z,74.17
2022-11-27T00:56:56.994Z,53.50
2022-11-27T01:01:49.801Z,58.57
2022-11-27T01:06:42.420Z,55.57
2022-11-27T01:11:36.685Z,44.20
2022-11-27T01:16:29.843Z,35.47
2022-11-27T01:21:22.699Z,31.60
2022-11-27T01:26:15.349Z,30.57
2022-11-27T01:31:10.489Z,28.60
2022-11-27T01:36:04.126Z,28.33
2022-11-27T01:41:00.303Z,23.80
2022-11-27T01:45:53.067Z,24.83
2022-11-27T01:50:48.303Z,27.77
2022-11-27T01:55:43.892Z,37.10
2022-11-27T02:00:36.998Z,35.80
2022-11-27T02:05:30.055Z,43.00
2022-11-27T02:10:24.443Z,52.70
2022-11-27T02:15:20.527Z,44.57
2022-11-27T02:20:29.671Z,50.53
2022-11-27T02:25:31.879Z,37.30
2022-11-27T02:30:25.862Z,38.60
2022-11-27T02:35:20.133Z,38.83
2022-11-27T02:40:14.075Z,36.50
2022-11-27T02:45:09.786Z,37.03
2022-11-27T02:50:04.537Z,38.47
2022-11-27T02:54:58.076Z,41.37
2022-11-27T02:59:51.298Z,40.53
2022-11-27T03:04:45.371Z,39.20
2022-11-27T03:09:40.522Z,40.33
2022-11-27T03:14:33.251Z,40.83
2022-11-27T03:19:27.532Z,50.13
2022-11-27T03:24:20.210Z,44.13
2022-11-27T03:29:16.093Z,41.07
2022-11-27T03:34:08.681Z,60.40
2022-11-27T03:39:01.363Z,65.60
2022-11-27T03:43:57.987Z,72.67
2022-11-27T03:48:58.784Z,89.20
2022-11-27T03:53:56.671Z,120.53
2022-11-27T03:58:51.985Z,162.70
2022-11-27T04:03:44.595Z,108.17
2022-11-27T04:08:38.963Z,126.50
2022-11-27T04:13:31.564Z,120.93
2022-11-27T04:18:24.123Z,146.70
2022-11-27T04:23:16.806Z,188.67
2022-11-27T04:28:10.720Z,197.33
2022-11-27T04:33:03.302Z,184.57
2022-11-27T04:37:57.186Z,64.20
2022-11-27T04:42:50.696Z,65.37
2022-11-27T04:47:44.892Z,56.90
2022-11-27T04:52:37.578Z,54.27
2022-11-27T04:57:30.234Z,54.67
2022-11-27T05:02:22.979Z,55.77
2022-11-27T05:07:17.076Z,62.63
2022-11-27T05:12:10.000Z,44.90
2022-11-27T05:17:03.044Z,55.70
2022-11-27T05:21:56.075Z,64.13
2022-11-27T05:26:50.276Z,46.43
2022-11-27T05:31:43.370Z,58.30
2022-11-27T05:36:36.315Z,54.37
2022-11-27T05:41:29.171Z,64.53
2022-11-27T05:46:23.713Z,85.57
2022-11-27T05:51:17.155Z,111.10
2022-11-27T05:56:11.724Z,112.90
2022-11-27T06:01:04.989Z,102.17
2022-11-27T06:05:58.948Z,105.00
2022-11-27T06:10:51.567Z,126.60
2022-11-27T06:15:44.180Z,61.70
2022-11-27T06:20:42.253Z,56.47
2022-11-27T06:25:37.820Z,50.27
2022-11-27T06:30:30.400Z,59.47
2022-11-27T06:35:23.099Z,68.60
2022-11-27T06:40:15.804Z,107.97
2022-11-27T06:45:10.572Z,100.50
2022-11-27T06:50:03.232Z,85.03
2022-11-27T06:54:55.823Z,64.83
2022-11-27T06:59:48.427Z,68.83
2022-11-27T07:04:42.662Z,52.60
2022-11-27T07:09:35.586Z,65.40
2022-11-27T07:14:28.540Z,52.73
2022-11-27T07:19:21.176Z,62.50
2022-11-27T07:24:15.156Z,79.57
2022-11-27T07:29:07.807Z,70.57
2022-11-27T07:34:00.465Z,102.80
2022-11-27T07:38:53.127Z,69.60
2022-11-27T07:43:47.397Z,65.67
2022-11-27T07:48:40.100Z,79.63
2022-11-27T07:53:36.955Z,39.23
2022-11-27T07:58:30.176Z,38.43
2022-11-27T08:03:24.421Z,43.63
2022-11-27T08:08:17.017Z,40.67
2022-11-27T08:13:09.592Z,39.77
2022-11-27T08:18:02.504Z,38.83
2022-11-27T08:23:02.290Z,38.97
2022-11-27T08:27:55.449Z,32.63
2022-11-27T08:32:48.030Z,39.10
2022-11-27T08:37:40.631Z,30.00
2022-11-27T08:42:34.632Z,30.47
2022-11-27T08:47:27.656Z,27.60
2022-11-27T08:52:20.612Z,29.00
2022-11-27T08:57:13.225Z,31.33
2022-11-27T09:02:07.216Z,29.70
2022-11-27T09:06:59.826Z,26.97
2022-11-27T09:11:52.447Z,29.50
2022-11-27T09:16:45.496Z,31.13
2022-11-27T09:21:39.861Z,22.50
2022-11-27T09:26:32.420Z,23.30
2022-11-27T09:31:25.955Z,19.40
2022-11-27T09:36:19.592Z,19.60
2022-11-27T09:41:24.759Z,21.03
2022-11-27T09:46:22.231Z,21.70
2022-11-27T09:51:17.187Z,20.97
2022-11-27T09:56:12.363Z,17.80
2022-11-27T10:01:12.580Z,19.13
2022-11-27T10:06:10.035Z,14.97
2022-11-27T10:11:10.948Z,14.60
2022-11-27T10:16:06.401Z,17.13
2022-11-27T10:21:02.244Z,18.43
2022-11-27T10:25:57.468Z,16.00
2022-11-27T10:30:52.541Z,13.57
2022-11-27T10:35:47.742Z,18.20
2022-11-27T10:40:44.604Z,13.80
2022-11-27T10:45:43.847Z,14.70
2022-11-27T10:50:36.519Z,15.10
2022-11-27T10:55:32.603Z,16.30
2022-11-27T11:00:27.866Z,16.00
2022-11-27T11:05:40.936Z,15.83
2022-11-27T11:10:35.857Z,15.57
2022-11-27T11:15:29.962Z,17.00
2022-11-27T11:20:23.462Z,14.43
2022-11-27T11:25:18.070Z,16.37
2022-11-27T11:30:21.081Z,17.90
2022-11-27T11:35:26.828Z,15.80
2022-11-27T11:40:23.230Z,21.73
2022-11-27T11:45:18.028Z,15.03
2022-11-27T11:50:13.428Z,14.90
2022-11-27T11:55:13.387Z,16.00
2022-11-27T12:00:07.308Z,14.50
2022-11-27T12:05:09.135Z,16.83
2022-11-27T12:10:04.570Z,14.80
2022-11-27T12:15:01.498Z,17.03
2022-11-27T12:19:59.795Z,14.20
2022-11-27T12:24:56.832Z,20.53
2022-11-27T12:30:04.349Z,15.73
2022-11-27T12:35:03.313Z,15.47
2022-11-27T12:40:01.157Z,16.03
2022-11-27T12:44:56.316Z,16.63
2022-11-27T12:49:52.847Z,14.20
2022-11-27T12:54:48.056Z,13.97
2022-11-27T12:59:43.663Z,17.93
2022-11-27T13:04:40.615Z,18.20
2022-11-27T13:09:42.053Z,19.60
2022-11-27T13:14:36.835Z,15.53
2022-11-27T13:19:32.713Z,17.20
2022-11-27T13:24:26.860Z,15.57
2022-11-27T13:29:25.868Z,29.97
2022-11-27T13:34:19.938Z,33.80
2022-11-27T13:39:23.266Z,23.90
2022-11-27T13:44:29.745Z,20.10
2022-11-27T13:49:24.843Z,16.67
2022-11-27T13:54:27.624Z,16.53
2022-11-27T13:59:22.667Z,14.90
2022-11-27T14:04:19.607Z,18.70
2022-11-27T14:09:12.560Z,19.37
2022-11-27T14:14:14.117Z,18.90
2022-11-27T14:19:08.007Z,17.30
2022-11-27T14:24:05.945Z,17.47
2022-11-27T14:28:59.420Z,19.97
2022-11-27T14:39:06.326Z,21.73
2022-11-27T14:44:02.725Z,23.80
2022-11-27T14:48:56.230Z,28.43
2022-11-27T14:53:51.602Z,21.93
2022-11-27T14:58:49.420Z,22.70
2022-11-27T15:03:42.151Z,21.37
2022-11-27T15:08:35.670Z,27.80
2022-11-27T15:13:30.128Z,23.63
2022-11-27T15:18:24.831Z,33.37
2022-11-27T15:23:18.358Z,34.27
2022-11-27T15:28:29.079Z,28.03
2022-11-27T15:33:30.371Z,31.37
2022-11-27T15:38:23.152Z,30.43
2022-11-27T15:43:16.479Z,27.60
2022-11-27T15:48:14.950Z,33.97
2022-11-27T15:53:08.866Z,25.97
2022-11-27T15:58:01.494Z,28.73
2022-11-27T16:02:54.191Z,37.57
2022-11-27T16:07:51.103Z,37.20
2022-11-27T16:12:47.638Z,28.77
2022-11-27T16:17:40.528Z,38.20
2022-11-27T16:22:33.408Z,37.83
2022-11-27T16:27:26.102Z,34.60
2022-11-27T16:32:20.466Z,34.67
2022-11-27T16:37:18.246Z,34.97
2022-11-27T16:42:11.279Z,44.03
2022-11-27T16:47:04.019Z,34.73
2022-11-27T16:51:57.987Z,39.83
2022-11-27T16:56:51.673Z,39.13
2022-11-27T17:01:44.581Z,39.77
2022-11-27T17:06:38.148Z,42.83
2022-11-27T17:11:33.899Z,40.47
2022-11-27T17:16:27.199Z,41.03
2022-11-27T17:21:24.219Z,44.63
2022-11-27T17:26:18.258Z,41.23
2022-11-27T17:31:13.671Z,48.17
2022-11-27T17:36:06.802Z,55.70
2022-11-27T17:41:01.312Z,51.53
2022-11-27T17:45:54.024Z,51.50
2022-11-27T17:50:48.054Z,57.00
2022-11-27T17:55:40.674Z,52.77
2022-11-27T18:00:33.449Z,52.70
2022-11-27T18:05:26.716Z,54.53
2022-11-27T18:10:21.756Z,53.57
2022-11-27T18:15:14.730Z,61.77
2022-11-27T18:20:08.067Z,50.77
2022-11-27T18:25:01.188Z,46.63
2022-11-27T18:29:55.423Z,52.60
2022-11-27T18:34:48.319Z,48.53
2022-11-27T18:39:41.679Z,47.87
2022-11-27T18:44:39.733Z,42.57
2022-11-27T18:49:37.290Z,48.77
2022-11-27T18:54:30.354Z,45.40
2022-11-27T18:59:23.610Z,50.13
2022-11-27T19:04:17.835Z,48.73
2022-11-27T19:09:13.740Z,49.33
2022-11-27T19:14:06.797Z,97.00
2022-11-27T19:19:01.307Z,40.93
2022-11-27T19:23:54.360Z,43.70
2022-11-27T19:28:50.616Z,52.67
2022-11-27T19:33:43.672Z,49.20
2022-11-27T19:38:36.777Z,52.53
2022-11-27T19:43:29.675Z,54.80
2022-11-27T19:48:24.835Z,56.77
2022-11-27T19:53:17.533Z,56.83
2022-11-27T19:58:11.164Z,63.57
2022-11-27T20:03:05.159Z,53.60
2022-11-27T20:07:59.580Z,46.23
2022-11-27T20:12:52.851Z,251.90
2022-11-27T20:17:45.503Z,61.57
2022-11-27T20:22:38.275Z,50.27
2022-11-27T20:27:32.309Z,50.40
2022-11-27T20:32:24.976Z,47.27
2022-11-27T20:37:19.132Z,44.90
2022-11-27T20:42:11.873Z,58.60
2022-11-27T20:47:05.902Z,61.30
2022-11-27T20:52:00.040Z,59.37
2022-11-27T20:56:52.706Z,55.30
2022-11-27T21:01:45.338Z,52.33
2022-11-27T21:06:43.896Z,53.33
2022-11-27T21:11:37.493Z,58.67
2022-11-27T21:16:31.471Z,58.33
2022-11-27T21:21:25.688Z,80.20
2022-11-27T21:26:20.215Z,89.43
2022-11-27T21:31:17.068Z,101.13
2022-11-27T21:36:09.759Z,107.47
2022-11-27T21:41:02.435Z,63.67
2022-11-27T21:45:56.477Z,65.20
2022-11-27T21:50:49.232Z,67.87
2022-11-27T21:55:44.051Z,55.47
2022-11-27T22:00:37.096Z,57.77
2022-11-27T22:05:31.101Z,55.53
2022-11-27T22:10:23.726Z,55.23
2022-11-27T22:15:16.468Z,78.10
2022-11-27T22:20:09.322Z,53.87
2022-11-27T22:25:05.932Z,58.83
2022-11-27T22:29:58.993Z,66.93
2022-11-27T22:34:51.711Z,67.80
2022-11-27T22:39:44.419Z,91.27
2022-11-27T22:44:38.876Z,65.30
2022-11-27T22:49:32.122Z,85.80
2022-11-27T22:54:24.858Z,62.90
2022-11-27T22:59:32.260Z,74.97
2022-11-27T23:04:27.615Z,64.73
2022-11-27T23:09:20.244Z,59.80
2022-11-27T23:14:12.865Z,62.20
2022-11-27T23:19:05.438Z,60.13
2022-11-27T23:23:59.378Z,62.77
2022-11-27T23:28:52.754Z,52.40
2022-11-27T23:33:45.350Z,51.37
2022-11-27T23:38:40.931Z,47.90
2022-11-27T23:43:35.076Z,47.93
2022-11-27T23:48:27.715Z,54.40
2022-11-27T23:53:20.346Z,55.23
2022-11-27T23:58:12.963Z,62.87
